Time;durP1;ratioP1;P1;durP2;ratioP2;P2;SDS_P1;SDS_P2;PMS_P1;PMS_P2;Temp;Humidity;BMP_temperature;BMP_pressure;BME280_temperature;BME280_humidity;BME280_pressure;Samples;Min_cycle;Max_cycle;Signal;HPM_P1;HPM_P2
2022/11/07 00:01:17;;;;;;;6.72;3.33;;;10.30;99.90;;;;;;5073582;28;20041;-82
2022/11/07 00:03:42;;;;;;;7.40;3.00;;;10.30;99.90;;;;;;5074981;28;20045;-81
2022/11/07 00:06:08;;;;;;;4.88;2.95;;;10.30;99.90;;;;;;5073667;28;20042;-81
2022/11/07 00:08:35;;;;;;;7.35;3.92;;;10.40;99.90;;;;;;5072219;28;20040;-81
2022/11/07 00:11:01;;;;;;;4.75;3.30;;;10.40;99.90;;;;;;5073960;28;20115;-82
2022/11/07 00:13:27;;;;;;;4.90;3.05;;;10.40;99.90;;;;;;5073213;28;20526;-82
2022/11/07 00:15:56;;;;;;;4.90;2.83;;;10.40;99.90;;;;;;5056691;28;20071;-81
2022/11/07 00:18:22;;;;;;;6.70;3.33;;;10.40;99.90;;;;;;5072894;28;20041;-81
2022/11/07 00:20:48;;;;;;;5.47;2.85;;;10.40;99.90;;;;;;5073174;28;20473;-82
2022/11/07 00:23:14;;;;;;;5.15;2.90;;;10.40;99.90;;;;;;5073050;28;20071;-82
2022/11/07 00:25:39;;;;;;;5.70;3.10;;;10.40;99.90;;;;;;5056336;28;20083;-81
2022/11/07 00:28:05;;;;;;;5.00;2.75;;;10.40;99.90;;;;;;5078319;28;20055;-81
2022/11/07 00:30:31;;;;;;;4.85;2.88;;;10.40;99.90;;;;;;5075954;28;20040;-81
2022/11/07 00:32:57;;;;;;;6.15;3.03;;;10.40;99.90;;;;;;5059609;28;20477;-82
2022/11/07 00:35:23;;;;;;;6.32;2.88;;;10.40;99.90;;;;;;5076657;28;20043;-81
2022/11/07 00:37:48;;;;;;;6.82;2.80;;;10.40;99.90;;;;;;5058821;28;20040;-82
2022/11/07 00:40:17;;;;;;;4.30;2.75;;;10.50;99.90;;;;;;5076049;28;20047;-82
2022/11/07 00:42:43;;;;;;;6.10;2.85;;;10.50;99.90;;;;;;5059210;28;20075;-82
2022/11/07 00:45:10;;;;;;;6.18;2.83;;;10.50;99.90;;;;;;5076791;28;20070;-82
2022/11/07 00:47:36;;;;;;;6.63;2.92;;;10.50;99.90;;;;;;5059542;28;20051;-81
2022/11/07 00:50:02;;;;;;;5.93;3.10;;;10.50;99.90;;;;;;5093688;28;20028;-81
2022/11/07 00:52:28;;;;;;;7.30;3.08;;;10.50;99.90;;;;;;5059411;28;20496;-82
2022/11/07 00:54:57;;;;;;;5.82;3.03;;;10.50;99.90;;;;;;5076005;28;20463;-82
2022/11/07 00:57:23;;;;;;;6.00;3.05;;;10.50;99.90;;;;;;5093657;28;20032;-82
2022/11/07 00:59:49;;;;;;;9.05;3.20;;;10.80;99.90;;;;;;5039161;28;20048;-82
2022/11/07 01:02:14;;;;;;;7.57;3.05;;;10.50;99.90;;;;;;5076078;28;20040;-82
2022/11/07 01:07:24;;;;;;;6.55;3.22;;;10.50;99.90;;;;;;5061710;28;20048;-82
2022/11/07 01:09:50;;;;;;;6.03;2.92;;;10.60;99.90;;;;;;5075792;28;20032;-82
2022/11/07 01:12:16;;;;;;;9.45;3.03;;;10.60;99.90;;;;;;5076010;28;20043;-80
2022/11/07 01:14:41;;;;;;;7.30;2.42;;;10.60;99.90;;;;;;5059435;28;20454;-81
2022/11/07 01:17:07;;;;;;;11.45;2.83;;;10.60;99.90;;;;;;5075601;28;20036;-81
2022/11/07 01:19:33;;;;;;;8.95;2.60;;;10.60;99.90;;;;;;5075850;28;20485;-81
2022/11/07 01:21:58;;;;;;;6.90;2.40;;;11.70;99.90;;;;;;5058810;28;20040;-80
2022/11/07 01:24:24;;;;;;;4.30;2.50;;;10.60;99.90;;;;;;5096229;28;20040;-81
2022/11/07 01:26:50;;;;;;;8.40;2.63;;;10.60;99.90;;;;;;5080132;28;20106;-80
2022/11/07 01:29:18;;;;;;;6.75;2.65;;;10.60;99.90;;;;;;5063152;28;20063;-81
2022/11/07 01:31:44;;;;;;;5.80;3.03;;;10.60;99.90;;;;;;5079438;28;20048;-81
2022/11/07 01:34:10;;;;;;;8.30;3.30;;;10.60;99.90;;;;;;5098007;28;20119;-81
2022/11/07 01:36:36;;;;;;;9.18;2.83;;;10.60;99.90;;;;;;5062758;28;20443;-81
2022/11/07 01:39:02;;;;;;;5.80;2.70;;;10.60;99.90;;;;;;5097532;28;20032;-81
2022/11/07 01:41:32;;;;;;;8.10;2.58;;;10.60;99.90;;;;;;5062295;28;20068;-81
2022/11/07 01:44:06;;;;;;;9.82;2.95;;;11.60;99.90;;;;;;5096651;28;20047;-81
2022/11/07 01:46:34;;;;;;;8.05;2.60;;;10.60;99.90;;;;;;5060186;28;20049;-81
2022/11/07 01:49:18;;;;;;;7.90;2.70;;;10.50;99.90;;;;;;5078526;28;20127;-81
2022/11/07 01:51:55;;;;;;;6.28;2.42;;;10.50;99.90;;;;;;5078160;28;20040;-82
2022/11/07 01:54:25;;;;;;;4.95;2.17;;;10.50;99.90;;;;;;5097041;28;20455;-81
2022/11/07 01:56:55;;;;;;;7.32;2.75;;;10.50;99.90;;;;;;5059288;28;20390;-82
2022/11/07 01:59:23;;;;;;;5.50;2.30;;;10.50;99.90;;;;;;5042818;28;20056;-81
2022/11/07 02:01:49;;;;;;;7.97;2.85;;;10.50;99.90;;;;;;5078737;28;20101;-81
2022/11/07 02:04:18;;;;;;;9.27;2.63;;;10.50;99.90;;;;;;5096840;28;20405;-82
2022/11/07 02:06:47;;;;;;;3.95;2.58;;;10.50;99.90;;;;;;5097168;28;20474;-81
2022/11/07 02:09:13;;;;;;;9.82;2.78;;;10.50;99.90;;;;;;5097487;28;20043;-81
2022/11/07 02:11:39;;;;;;;4.40;2.30;;;10.50;99.90;;;;;;5097076;28;20343;-81
2022/11/07 02:14:05;;;;;;;7.45;2.70;;;10.50;99.90;;;;;;5061856;28;20051;-81
2022/11/07 02:16:33;;;;;;;7.32;2.55;;;11.20;99.90;;;;;;5062210;28;20381;-81
2022/11/07 02:18:59;;;;;;;4.75;2.58;;;10.60;99.90;;;;;;5078962;28;20058;-82
2022/11/07 02:21:59;;;;;;;6.22;2.38;;;10.60;99.90;;;;;;5078405;28;20032;-82
2022/11/07 02:24:31;;;;;;;6.85;2.00;;;10.50;99.90;;;;;;5010503;28;20521;-82
2022/11/07 02:26:59;;;;;;;3.55;1.98;;;10.60;99.90;;;;;;5078691;28;20123;-82
2022/11/07 02:29:26;;;;;;;4.72;2.08;;;10.50;99.90;;;;;;5062162;28;20123;-82
2022/11/07 02:32:07;;;;;;;3.17;1.80;;;10.50;99.90;;;;;;5078208;28;20048;-83
2022/11/07 02:34:33;;;;;;;2.67;1.70;;;10.70;99.90;;;;;;5061626;28;20032;-81
2022/11/07 02:36:59;;;;;;;7.75;2.30;;;10.50;99.90;;;;;;5078510;28;20088;-81
2022/11/07 02:39:25;;;;;;;12.13;2.25;;;10.50;99.90;;;;;;5078005;28;20040;-81
2022/11/07 02:41:53;;;;;;;7.55;2.20;;;10.50;99.90;;;;;;5061362;28;20048;-81
2022/11/07 02:44:19;;;;;;;3.83;1.92;;;10.50;99.90;;;;;;5078731;28;20048;-81
2022/11/07 02:46:45;;;;;;;5.13;1.70;;;10.40;99.90;;;;;;5045303;28;20051;-81
2022/11/07 02:49:11;;;;;;;5.30;1.85;;;10.40;99.90;;;;;;5062144;28;20043;-81
2022/11/07 02:51:37;;;;;;;3.05;1.83;;;10.40;99.90;;;;;;5078112;28;20123;-81
2022/11/07 02:54:02;;;;;;;3.75;1.60;;;10.40;99.90;;;;;;5078120;28;20474;-81
2022/11/07 02:56:28;;;;;;;5.18;2.38;;;10.40;99.90;;;;;;5061682;28;20038;-82
2022/11/07 02:58:54;;;;;;;7.25;2.10;;;10.40;99.90;;;;;;5060992;28;20555;-82
2022/11/07 03:01:20;;;;;;;5.32;1.90;;;10.40;99.90;;;;;;5078228;28;20083;-82
2022/11/07 03:03:49;;;;;;;8.25;2.45;;;10.50;99.90;;;;;;5077445;28;20047;-82
2022/11/07 03:06:20;;;;;;;9.15;2.38;;;10.60;99.90;;;;;;5058216;28;20047;-82
2022/11/07 03:08:47;;;;;;;5.25;2.10;;;10.70;99.90;;;;;;5071704;28;20149;-80
2022/11/07 03:11:13;;;;;;;4.97;2.05;;;10.70;99.90;;;;;;5060871;28;20054;-80
2022/11/07 03:13:39;;;;;;;4.50;2.42;;;10.70;99.90;;;;;;5039381;28;20587;-80
2022/11/07 03:16:09;;;;;;;10.57;1.67;;;10.70;99.90;;;;;;5074002;28;20032;-80
2022/11/07 03:18:36;;;;;;;11.50;3.17;;;10.70;99.90;;;;;;5044379;28;20169;-80
2022/11/07 03:21:03;;;;;;;7.93;1.63;;;10.70;99.90;;;;;;5060514;28;20081;-80
2022/11/07 03:23:29;;;;;;;5.05;1.42;;;10.70;99.90;;;;;;5077468;28;20047;-80
2022/11/07 03:25:55;;;;;;;8.77;1.67;;;10.70;99.90;;;;;;5060740;28;20427;-80
2022/11/07 03:28:22;;;;;;;4.78;1.50;;;10.70;99.90;;;;;;5077313;28;20044;-80
2022/11/07 03:30:47;;;;;;;8.70;1.63;;;10.70;99.90;;;;;;5077702;28;20136;-80
2022/11/07 03:33:13;;;;;;;3.67;1.33;;;10.60;99.90;;;;;;5077031;28;20066;-80
2022/11/07 03:35:39;;;;;;;4.85;1.33;;;10.60;99.90;;;;;;5060517;28;20043;-81
2022/11/07 03:38:04;;;;;;;4.32;1.48;;;10.60;99.90;;;;;;5060361;28;20578;-81
2022/11/07 03:40:31;;;;;;;7.10;1.70;;;;;;;;;;5095663;28;20374;-81
2022/11/07 03:42:56;;;;;;;3.67;1.40;;;10.50;99.90;;;;;;5095187;28;20120;-82
2022/11/07 03:45:22;;;;;;;4.63;1.42;;;10.40;99.90;;;;;;5076966;28;20044;-81
2022/11/07 03:47:48;;;;;;;4.35;1.58;;;10.40;99.90;;;;;;5087177;28;20038;-81
2022/11/07 03:50:17;;;;;;;4.47;1.73;;;10.50;99.90;;;;;;5095330;28;20482;-82
2022/11/07 03:52:43;;;;;;;3.08;1.25;;;10.40;99.90;;;;;;5095411;28;20489;-81
2022/11/07 03:55:09;;;;;;;5.88;1.70;;;10.40;99.90;;;;;;5060248;28;20048;-82
2022/11/07 03:57:35;;;;;;;7.85;1.75;;;10.40;99.90;;;;;;5094375;28;20080;-81
2022/11/07 04:00:02;;;;;;;6.80;2.08;;;10.40;99.90;;;;;;5076845;28;20079;-82
2022/11/07 04:02:28;;;;;;;6.28;1.38;;;10.50;99.90;;;;;;5094612;28;20478;-81
2022/11/07 04:04:54;;;;;;;3.17;1.63;;;10.50;99.90;;;;;;5094530;28;20032;-82
2022/11/07 04:07:20;;;;;;;6.05;1.92;;;10.90;99.90;;;;;;5014105;28;20047;-82
2022/11/07 04:09:45;;;;;;;4.07;1.55;;;10.40;99.90;;;;;;5043213;28;20127;-82
2022/11/07 04:17:39;;;;;;;6.28;1.50;;;10.60;99.90;;;;;;5064273;28;20040;-81
2022/11/07 04:20:06;;;;;;;3.55;1.30;;;10.80;99.90;;;;;;5093352;28;20385;-81
2022/11/07 04:22:31;;;;;;;3.85;1.45;;;10.70;99.90;;;;;;5059310;28;20040;-81
2022/11/07 04:24:57;;;;;;;7.07;1.75;;;10.70;99.90;;;;;;5059095;28;20545;-80
2022/11/07 04:27:45;;;;;;;5.53;1.50;;;10.70;99.90;;;;;;5075036;28;20032;-81
2022/11/07 04:30:17;;;;;;;6.45;1.42;;;10.70;99.90;;;;;;5054610;28;20084;-81
2022/11/07 04:32:48;;;;;;;4.50;1.73;;;10.60;99.90;;;;;;5039443;28;20087;-80
2022/11/07 04:35:14;;;;;;;9.38;1.83;;;11.80;99.90;;;;;;5073758;28;20105;-79
2022/11/07 04:37:41;;;;;;;3.97;1.60;;;10.70;99.90;;;;;;5050609;28;20039;-80
2022/11/07 04:40:08;;;;;;;5.93;1.60;;;10.70;99.90;;;;;;5074921;28;20101;-80
2022/11/07 04:42:34;;;;;;;7.45;2.03;;;10.70;99.90;;;;;;5038875;28;20554;-80
2022/11/07 04:44:59;;;;;;;10.75;2.05;;;10.70;99.90;;;;;;5093558;28;20068;-80
2022/11/07 04:47:25;;;;;;;5.80;1.75;;;10.70;99.90;;;;;;5093154;28;20433;-81
2022/11/07 04:49:51;;;;;;;3.35;1.30;;;10.70;99.90;;;;;;5073760;28;20473;-81
2022/11/07 04:52:17;;;;;;;6.55;1.70;;;10.70;99.90;;;;;;5075555;28;20115;-81
2022/11/07 04:54:42;;;;;;;4.30;2.08;;;10.70;99.90;;;;;;5075792;28;20389;-81
2022/11/07 04:57:08;;;;;;;4.70;2.22;;;10.70;99.90;;;;;;5058572;28;20248;-81
2022/11/07 04:59:34;;;;;;;5.40;1.88;;;10.60;99.90;;;;;;5074708;28;20044;-81
2022/11/07 05:02:00;;;;;;;7.72;1.70;;;10.50;99.90;;;;;;5093690;28;20532;-81
2022/11/07 05:04:26;;;;;;;2.47;1.45;;;10.50;99.90;;;;;;5093776;28;20080;-80
2022/11/07 05:06:52;;;;;;;8.40;2.20;;;10.40;99.90;;;;;;5075549;28;20079;-80
2022/11/07 05:09:18;;;;;;;6.15;2.03;;;10.30;99.90;;;;;;5058175;28;20097;-80
2022/11/07 05:11:47;;;;;;;6.30;1.75;;;10.30;99.90;;;;;;5074440;28;20505;-80
2022/11/07 05:14:13;;;;;;;6.18;1.40;;;9.80;99.90;;;;;;5075557;28;20079;-80
2022/11/07 05:16:42;;;;;;;5.22;1.65;;;10.20;99.90;;;;;;5093440;28;20071;-80
2022/11/07 05:19:15;;;;;;;4.70;1.98;;;10.20;99.90;;;;;;5074916;28;20040;-80
2022/11/07 05:21:41;;;;;;;2.13;1.30;;;10.10;99.90;;;;;;5074088;28;20063;-81
2022/11/07 05:24:07;;;;;;;4.45;1.45;;;10.10;99.90;;;;;;5093637;28;20458;-81
2022/11/07 05:26:33;;;;;;;7.78;3.65;;;10.10;99.90;;;;;;5075130;28;20040;-81
2022/11/07 05:28:58;;;;;;;5.38;2.00;;;10.90;99.90;;;;;;5092911;28;20052;-81
2022/11/07 05:31:24;;;;;;;7.70;1.98;;;10.20;99.90;;;;;;5039071;28;20051;-81
2022/11/07 05:33:50;;;;;;;9.10;1.70;;;10.30;99.90;;;;;;5074562;28;20036;-80
2022/11/07 05:36:18;;;;;;;3.20;1.73;;;10.30;99.90;;;;;;5093020;28;20044;-81
2022/11/07 05:38:46;;;;;;;6.07;1.60;;;10.40;99.90;;;;;;5093355;28;20046;-80
2022/11/07 05:41:14;;;;;;;9.85;2.40;;;10.40;99.90;;;;;;5074500;28;20036;-80
2022/11/07 05:43:40;;;;;;;4.32;1.33;;;10.40;99.90;;;;;;5099616;22;20059;-82
2022/11/07 05:46:06;;;;;;;4.53;1.65;;;10.50;99.90;;;;;;5058350;28;20103;-81
2022/11/07 05:48:32;;;;;;;5.97;1.75;;;11.40;99.90;;;;;;5093503;28;20092;-81
2022/11/07 05:50:58;;;;;;;5.15;1.90;;;10.50;99.90;;;;;;5074247;28;20115;-81
2022/11/07 05:53:25;;;;;;;4.82;1.52;;;10.50;99.90;;;;;;5081370;28;20040;-81
2022/11/07 05:55:51;;;;;;;7.28;1.40;;;10.50;99.90;;;;;;5041388;28;20048;-81
2022/11/07 05:58:18;;;;;;;6.68;1.80;;;10.10;99.90;;;;;;5075103;28;20076;-81
2022/11/07 06:00:44;;;;;;;5.40;1.60;;;10.50;99.90;;;;;;5092178;28;20040;-81
2022/11/07 06:03:10;;;;;;;4.45;1.67;;;10.50;99.90;;;;;;5092493;28;20097;-81
2022/11/07 06:05:38;;;;;;;2.92;1.42;;;10.80;99.90;;;;;;5071139;28;20036;-81
2022/11/07 06:08:04;;;;;;;7.05;2.28;;;11.00;99.90;;;;;;5074246;28;20044;-81
2022/11/07 06:10:30;;;;;;;3.58;1.60;;;10.40;99.90;;;;;;5077120;28;20048;-82
2022/11/07 06:13:01;;;;;;;6.25;1.88;;;10.90;99.90;;;;;;5061693;28;20096;-81
2022/11/07 06:15:29;;;;;;;4.18;1.73;;;10.50;99.90;;;;;;5078397;28;20054;-82
2022/11/07 06:17:57;;;;;;;4.15;1.98;;;10.50;99.90;;;;;;5061384;28;20122;-81
2022/11/07 06:20:23;;;;;;;4.65;2.08;;;10.50;99.90;;;;;;5077914;28;20071;-81
2022/11/07 06:22:49;;;;;;;4.03;1.88;;;10.50;99.90;;;;;;5077721;28;20071;-81
2022/11/07 06:25:14;;;;;;;3.88;1.55;;;10.50;99.90;;;;;;5097117;28;20036;-81
2022/11/07 06:27:40;;;;;;;6.18;1.90;;;10.50;99.90;;;;;;5078595;28;20389;-81
2022/11/07 06:30:06;;;;;;;10.55;1.85;;;10.50;99.90;;;;;;5078751;28;20117;-81
2022/11/07 06:32:32;;;;;;;4.28;1.73;;;10.50;99.90;;;;;;5088289;28;20169;-81
2022/11/07 06:34:58;;;;;;;4.30;1.35;;;10.50;99.90;;;;;;5077681;28;20115;-81
2022/11/07 06:37:27;;;;;;;7.10;2.70;;;11.40;99.90;;;;;;5096432;28;20179;-81
2022/11/07 06:39:52;;;;;;;5.90;1.80;;;10.50;99.90;;;;;;5061697;28;20040;-81
2022/11/07 06:42:18;;;;;;;5.72;2.40;;;11.30;99.90;;;;;;5072785;28;20036;-81
2022/11/07 06:44:44;;;;;;;4.32;1.40;;;10.40;99.90;;;;;;5059179;28;20061;-81
2022/11/07 06:47:09;;;;;;;6.60;1.90;;;10.40;99.90;;;;;;5061623;28;20040;-81
2022/11/07 06:49:35;;;;;;;2.90;1.90;;;10.40;99.90;;;;;;5096187;28;20040;-81
2022/11/07 06:52:01;;;;;;;7.55;1.98;;;10.50;99.90;;;;;;5071751;28;20048;-81
2022/11/07 06:54:26;;;;;;;4.70;2.00;;;10.50;99.90;;;;;;5067002;28;20140;-81
2022/11/07 06:56:52;;;;;;;2.97;1.90;;;;;;;;;;5069604;28;20482;-81
2022/11/07 06:59:18;;;;;;;4.22;2.10;;;10.50;99.90;;;;;;5067767;28;20058;-81
2022/11/07 07:01:44;;;;;;;11.43;2.78;;;10.50;99.90;;;;;;5067045;28;20032;-80
2022/11/07 07:04:10;;;;;;;5.20;2.45;;;10.50;99.90;;;;;;5034177;28;20124;-80
2022/11/07 07:06:37;;;;;;;4.00;2.63;;;10.60;99.90;;;;;;5068961;28;20040;-80
2022/11/07 07:09:05;;;;;;;5.40;2.20;;;10.60;99.90;;;;;;5066249;28;20036;-80
2022/11/07 07:11:35;;;;;;;7.32;2.60;;;10.60;99.90;;;;;;5072732;28;20168;-81
2022/11/07 07:14:01;;;;;;;4.57;2.20;;;10.60;99.90;;;;;;5070361;28;20036;-80
2022/11/07 07:16:27;;;;;;;6.85;2.88;;;10.60;99.90;;;;;;5067276;28;20394;-80
2022/11/07 07:18:52;;;;;;;6.97;2.38;;;10.60;99.90;;;;;;5083803;28;20040;-81
2022/11/07 07:21:18;;;;;;;8.02;2.40;;;10.60;99.90;;;;;;5087930;28;20475;-81
2022/11/07 07:23:47;;;;;;;5.60;2.58;;;11.30;99.90;;;;;;5084373;28;20028;-81
2022/11/07 07:26:14;;;;;;;8.70;2.53;;;10.50;99.90;;;;;;5071805;28;20471;-81
2022/11/07 07:28:41;;;;;;;9.95;3.00;;;10.60;99.90;;;;;;5049521;28;20044;-81
2022/11/07 07:31:08;;;;;;;4.60;2.67;;;10.70;99.90;;;;;;5051091;28;20040;-81
2022/11/07 07:33:34;;;;;;;9.77;2.78;;;10.70;99.90;;;;;;5050809;28;20036;-81
2022/11/07 07:36:00;;;;;;;8.85;2.75;;;10.60;99.90;;;;;;5070188;28;20050;-80
2022/11/07 07:38:25;;;;;;;8.02;3.03;;;10.60;99.90;;;;;;5059803;28;20402;-80
2022/11/07 07:40:51;;;;;;;5.20;2.83;;;10.60;99.90;;;;;;5059510;28;20075;-80
2022/11/07 07:43:17;;;;;;;4.47;2.30;;;10.60;99.90;;;;;;5059750;28;20541;-80
2022/11/07 07:45:42;;;;;;;6.47;2.13;;;10.60;99.90;;;;;;5056717;28;20063;-80
2022/11/07 07:48:08;;;;;;;4.80;2.75;;;10.60;99.90;;;;;;5049116;28;20432;-80
2022/11/07 07:50:34;;;;;;;9.20;3.58;;;10.60;99.90;;;;;;5058174;28;20064;-81
2022/11/07 07:53:00;;;;;;;4.97;2.38;;;10.60;99.90;;;;;;5056908;28;20040;-82
2022/11/07 07:55:26;;;;;;;7.95;2.70;;;10.60;99.90;;;;;;5048711;28;20047;-81
2022/11/07 07:57:51;;;;;;;8.38;2.60;;;10.60;99.90;;;;;;5055750;28;20036;-82
2022/11/07 08:00:17;;;;;;;10.70;4.15;;;10.60;99.90;;;;;;5059228;28;20037;-81
2022/11/07 08:02:43;;;;;;;6.82;2.60;;;10.70;99.90;;;;;;5067223;28;20071;-81
2022/11/07 08:05:13;;;;;;;7.03;2.55;;;10.70;99.90;;;;;;5053309;28;20063;-81
2022/11/07 08:07:50;;;;;;;9.07;2.95;;;10.70;99.90;;;;;;5068405;28;20079;-81
2022/11/07 08:10:16;;;;;;;;;;;10.70;99.90;;;;;;5072892;28;20101;-81
2022/11/07 08:12:43;;;;;;;7.32;3.05;;;10.70;99.90;;;;;;5054602;28;19951;-81
2022/11/07 08:15:10;;;;;;;6.85;2.60;;;10.80;99.90;;;;;;5060340;28;20034;-81
2022/11/07 08:17:37;;;;;;;6.88;2.95;;;10.70;99.90;;;;;;5072353;28;20044;-81
2022/11/07 08:20:03;;;;;;;10.38;2.85;;;10.80;99.90;;;;;;5038268;28;20123;-81
2022/11/07 08:22:29;;;;;;;11.85;2.95;;;10.80;99.90;;;;;;5041169;28;20509;-81
2022/11/07 08:24:54;;;;;;;9.10;3.08;;;10.80;99.90;;;;;;5067719;28;20060;-81
2022/11/07 08:27:20;;;;;;;6.85;2.47;;;10.80;99.90;;;;;;5051329;28;20516;-81
2022/11/07 08:29:46;;;;;;;6.57;2.30;;;10.80;99.90;;;;;;5048797;28;20040;-81
2022/11/07 08:32:12;;;;;;;4.93;2.10;;;10.90;99.90;;;;;;5069109;28;20040;-81
2022/11/07 08:34:37;;;;;;;3.92;2.30;;;10.90;99.90;;;;;;5048934;28;20540;-81
2022/11/07 08:37:03;;;;;;;7.97;2.75;;;11.00;99.90;;;;;;5065342;28;20049;-81
2022/11/07 08:39:29;;;;;;;7.10;2.92;;;11.00;99.90;;;;;;5047844;28;20032;-80
2022/11/07 08:41:55;;;;;;;9.00;2.63;;;11.00;99.90;;;;;;5066845;28;20051;-81
2022/11/07 08:44:21;;;;;;;9.10;2.55;;;11.00;99.90;;;;;;5041085;28;20072;-81
2022/11/07 08:46:46;;;;;;;5.85;2.45;;;11.00;99.90;;;;;;5036090;28;20044;-81
2022/11/07 08:49:12;;;;;;;6.53;2.40;;;11.10;99.90;;;;;;5072804;28;20051;-81
2022/11/07 08:51:38;;;;;;;8.68;3.22;;;11.10;99.90;;;;;;5041534;28;20077;-81
2022/11/07 08:54:03;;;;;;;11.82;2.75;;;11.20;99.90;;;;;;5052930;28;20045;-81
2022/11/07 08:56:29;;;;;;;7.68;2.65;;;11.20;99.90;;;;;;5052953;28;20033;-81
2022/11/07 08:58:55;;;;;;;6.03;2.45;;;11.30;99.90;;;;;;5038651;28;20528;-81
2022/11/07 09:01:21;;;;;;;5.07;2.55;;;11.30;99.90;;;;;;5053301;28;20044;-81
2022/11/07 09:03:46;;;;;;;11.32;2.65;;;11.40;99.90;;;;;;5058495;28;20071;-81
2022/11/07 09:06:12;;;;;;;4.90;2.22;;;11.40;99.90;;;;;;5067494;28;20086;-81
2022/11/07 09:08:39;;;;;;;11.80;3.40;;;11.50;99.90;;;;;;5071963;28;20106;-81
2022/11/07 09:11:05;;;;;;;9.90;2.40;;;11.50;99.90;;;;;;5047356;28;20096;-81
2022/11/07 09:13:32;;;;;;;7.63;2.55;;;11.60;99.90;;;;;;5024320;28;20529;-81
2022/11/07 09:15:59;;;;;;;5.53;2.20;;;11.60;99.90;;;;;;5053985;28;20546;-82
2022/11/07 09:18:26;;;;;;;6.03;2.42;;;11.00;99.90;;;;;;5064406;28;20045;-81
2022/11/07 09:20:52;;;;;;;8.55;2.53;;;11.60;99.90;;;;;;5062371;28;20033;-81
2022/11/07 09:23:18;;;;;;;8.80;2.70;;;11.80;99.90;;;;;;5045275;28;20099;-82
2022/11/07 09:25:44;;;;;;;8.43;2.50;;;11.70;99.90;;;;;;5061020;28;20049;-82
2022/11/07 09:28:10;;;;;;;6.50;1.95;;;11.70;99.90;;;;;;5063374;28;20063;-81
2022/11/07 09:30:36;;;;;;;8.85;2.58;;;11.80;99.90;;;;;;5060715;28;20045;-80
2022/11/07 09:33:02;;;;;;;8.55;3.08;;;11.80;99.90;;;;;;5055174;28;20037;-80
2022/11/07 09:35:27;;;;;;;11.25;2.30;;;11.70;99.90;;;;;;5035107;28;20111;-80
2022/11/07 09:37:53;;;;;;;4.53;1.83;;;11.80;99.90;;;;;;5063014;28;20041;-80
2022/11/07 09:40:39;;;;;;;10.15;2.35;;;11.70;99.90;;;;;;5063163;28;20033;-80
2022/11/07 09:43:16;;;;;;;5.05;2.08;;;11.90;99.90;;;;;;5066937;28;20040;-80
2022/11/07 09:46:11;;;;;;;11.65;2.75;;;11.80;99.90;;;;;;5067205;28;20076;-80
2022/11/07 09:48:43;;;;;;;11.23;2.58;;;11.90;99.90;;;;;;5070807;28;20041;-81
2022/11/07 09:51:37;;;;;;;3.70;2.38;;;11.90;99.90;;;;;;5068282;28;20808;-82
2022/11/07 09:54:27;;;;;;;8.63;2.28;;;12.00;99.90;;;;;;5066454;28;20055;-81
2022/11/07 09:56:56;;;;;;;7.22;2.33;;;12.10;99.90;;;;;;5076641;28;20048;-81
2022/11/07 09:59:47;;;;;;;6.20;2.00;;;12.20;99.90;;;;;;5050640;28;20034;-81
2022/11/07 10:02:15;;;;;;;3.75;1.98;;;12.20;99.90;;;;;;5043550;28;20044;-81
2022/11/07 10:04:43;;;;;;;7.05;2.50;;;12.30;99.90;;;;;;5075613;28;20032;-80
2022/11/07 10:07:19;;;;;;;12.85;3.25;;;12.30;99.90;;;;;;5069472;28;20036;-80
2022/11/07 10:09:56;;;;;;;4.10;2.08;;;12.30;99.90;;;;;;5053312;28;20039;-80
2022/11/07 10:12:50;;;;;;;8.68;3.05;;;12.40;99.90;;;;;;5066578;28;20063;-80
2022/11/07 10:15:43;;;;;;;4.95;2.30;;;12.40;99.90;;;;;;5058822;28;20036;-79
2022/11/07 10:18:34;;;;;;;7.13;2.53;;;12.40;99.90;;;;;;5062004;28;20628;-79
2022/11/07 10:21:06;;;;;;;6.13;2.15;;;12.50;99.90;;;;;;5072890;28;20039;-80
2022/11/07 10:24:23;;;;;;;4.03;1.80;;;12.50;99.90;;;;;;5071580;28;20044;-80
2022/11/07 10:26:49;;;;;;;12.55;1.95;;;12.50;99.90;;;;;;5034439;28;20040;-81
2022/11/07 10:29:20;;;;;;;5.10;2.00;;;12.60;99.90;;;;;;5071783;28;20046;-81
2022/11/07 10:32:23;;;;;;;6.10;1.83;;;12.70;99.90;;;;;;5069532;28;20527;-81
2022/11/07 10:35:23;;;;;;;4.32;1.67;;;12.70;99.90;;;;;;5069234;28;20061;-81
2022/11/07 10:38:00;;;;;;;8.55;1.88;;;12.80;99.90;;;;;;5069236;28;20046;-82
2022/11/07 10:40:39;;;;;;;5.82;1.90;;;12.80;99.90;;;;;;5072120;28;20505;-82
2022/11/07 10:43:18;;;;;;;6.10;2.03;;;12.80;99.90;;;;;;5075381;28;20055;-82
2022/11/07 10:45:44;;;;;;;9.18;2.10;;;12.80;99.90;;;;;;5061376;28;20039;-82
2022/11/07 10:48:13;;;;;;;6.28;1.80;;;12.80;99.90;;;;;;5078230;28;20379;-82
2022/11/07 10:50:38;;;;;;;10.00;1.90;;;12.80;99.90;;;;;;5078560;28;20035;-82
2022/11/07 10:53:08;;;;;;;6.30;1.80;;;12.80;99.90;;;;;;5044161;28;20042;-82
2022/11/07 10:55:48;;;;;;;6.53;2.10;;;12.80;99.90;;;;;;5077823;28;20039;-81
2022/11/07 10:58:28;;;;;;;13.50;3.00;;;12.90;99.90;;;;;;5077913;28;20051;-81
2022/11/07 11:01:07;;;;;;;6.95;1.90;;;12.90;99.90;;;;;;5059901;28;20036;-81
2022/11/07 11:03:38;;;;;;;4.68;2.03;;;;;;;;;;5074849;28;20048;-81
2022/11/07 11:06:16;;;;;;;10.43;2.50;;;12.90;99.90;;;;;;5042921;28;20375;-81
2022/11/07 11:08:43;;;;;;;6.60;1.95;;;13.00;99.90;;;;;;5061279;28;20040;-81
2022/11/07 11:11:27;;;;;;;8.23;2.42;;;13.00;99.90;;;;;;5068154;28;20109;-81
2022/11/07 11:14:04;;;;;;;6.00;1.80;;;13.00;99.90;;;;;;5062175;28;20040;-81
2022/11/07 11:16:34;;;;;;;9.27;2.20;;;13.00;99.90;;;;;;5072891;28;20059;-81
2022/11/07 11:19:01;;;;;;;9.23;1.90;;;12.90;99.90;;;;;;5057648;28;20045;-81
2022/11/07 11:21:48;;;;;;;9.90;2.22;;;12.90;99.90;;;;;;5041509;28;20485;-81
2022/11/07 11:24:34;;;;;;;;;;;12.90;99.90;;;;;;5059388;28;20023;-81
2022/11/07 11:27:11;;;;;;;6.47;1.88;;;12.90;99.90;;;;;;5077019;28;19923;-81
2022/11/07 11:29:59;;;;;;;2.15;1.70;;;13.00;99.90;;;;;;5060090;28;20032;-82
2022/11/07 11:32:41;;;;;;;7.90;2.10;;;13.10;99.90;;;;;;5060422;28;20071;-82
2022/11/07 11:35:37;;;;;;;5.13;2.22;;;13.10;99.90;;;;;;5070216;28;20093;-82
2022/11/07 11:38:22;;;;;;;8.87;1.97;;;13.20;99.90;;;;;;5060746;28;20127;-81
2022/11/07 11:40:56;;;;;;;4.97;2.15;;;13.40;99.90;;;;;;5057837;28;20047;-82
2022/11/07 11:43:26;;;;;;;4.55;1.90;;;13.40;99.90;;;;;;5068448;28;20056;-81
2022/11/07 11:46:20;;;;;;;8.18;2.45;;;13.60;99.90;;;;;;5065666;28;20454;-81
2022/11/07 11:49:00;;;;;;;5.50;2.55;;;13.80;99.90;;;;;;5073400;28;20052;-81
2022/11/07 11:51:31;;;;;;;4.85;2.25;;;13.80;99.90;;;;;;5073291;28;20044;-81
2022/11/07 11:53:57;;;;;;;2.65;2.15;;;13.70;99.90;;;;;;5056672;28;20297;-81
2022/11/07 11:56:26;;;;;;;4.13;1.98;;;13.60;99.90;;;;;;5053455;28;20040;-81
2022/11/07 11:59:24;;;;;;;5.20;2.00;;;13.60;99.90;;;;;;5074023;28;20486;-80
2022/11/07 12:02:28;;;;;;;9.13;2.20;;;13.70;99.90;;;;;;5055214;28;20041;-80
2022/11/07 12:05:22;;;;;;;4.68;2.00;;;13.70;99.90;;;;;;5058811;28;20041;-80
2022/11/07 12:07:51;;;;;;;6.35;1.85;;;13.70;99.90;;;;;;5065260;28;20044;-79
2022/11/07 12:10:34;;;;;;;7.43;2.63;;;13.80;99.90;;;;;;5073918;28;20079;-80
2022/11/07 12:13:51;;;;;;;8.27;2.10;;;13.90;99.90;;;;;;5073418;28;20127;-80
2022/11/07 12:16:42;;;;;;;6.53;2.50;;;14.00;99.90;;;;;;5010832;28;20053;-80
2022/11/07 12:19:18;;;;;;;5.82;1.92;;;14.10;99.90;;;;;;5071811;28;20036;-81
2022/11/07 12:21:50;;;;;;;8.68;1.95;;;14.00;99.90;;;;;;5056854;28;20055;-82
2022/11/07 12:24:34;;;;;;;4.60;2.30;;;14.00;99.90;;;;;;5071134;28;20036;-82
2022/11/07 12:27:09;;;;;;;7.65;2.30;;;13.90;99.90;;;;;;5052209;28;20040;-82
2022/11/07 12:30:02;;;;;;;2.38;1.50;;;13.90;99.90;;;;;;5064603;28;20472;-82
2022/11/07 12:33:00;;;;;;;4.63;2.40;;;14.10;99.90;;;;;;5053121;28;20479;-82
2022/11/07 12:35:34;;;;;;;8.52;2.10;;;14.20;99.90;;;;;;5038340;28;20501;-81
2022/11/07 12:38:12;;;;;;;4.10;1.55;;;14.30;99.90;;;;;;5067221;28;20575;-81
2022/11/07 12:41:00;;;;;;;5.88;1.75;;;14.30;99.90;;;;;;5055592;28;20040;-82
2022/11/07 12:43:44;;;;;;;3.42;2.35;;;14.30;99.90;;;;;;5072226;28;20487;-82
2022/11/07 12:46:35;;;;;;;6.38;2.10;;;14.20;99.90;;;;;;5050141;28;20043;-82
2022/11/07 12:49:25;;;;;;;6.43;2.05;;;14.20;99.90;;;;;;5072938;28;20370;-81
2022/11/07 12:52:00;;;;;;;3.10;1.67;;;14.10;99.90;;;;;;5055525;28;20040;-82
2022/11/07 12:54:37;;;;;;;4.78;1.95;;;14.00;99.90;;;;;;5072768;28;20043;-82
2022/11/07 12:57:11;;;;;;;7.40;2.28;;;13.90;99.90;;;;;;5050668;28;20048;-82
2022/11/07 12:59:40;;;;;;;5.38;2.03;;;13.90;99.90;;;;;;5072693;28;20505;-81
2022/11/07 13:02:25;;;;;;;501.73;55.45;;;14.00;99.90;;;;;;5072274;28;20051;-81
2022/11/07 13:05:13;;;;;;;12.55;3.40;;;14.00;99.90;;;;;;5045980;28;20470;-82
2022/11/07 13:07:49;;;;;;;6.40;2.47;;;13.90;99.90;;;;;;5054245;28;20059;-81
2022/11/07 13:10:22;;;;;;;4.75;1.77;;;13.80;99.90;;;;;;5056526;28;20475;-80
2022/11/07 13:13:23;;;;;;;4.18;2.10;;;13.80;99.90;;;;;;5072173;28;20040;-80